createdAt,value
2019-06-04T00:00:36.088Z,58.92
2019-06-04T00:01:36.086Z,59.82
2019-06-04T00:02:36.067Z,59.55
2019-06-04T00:03:36.063Z,59.05
2019-06-04T00:04:36.048Z,59.05
2019-06-04T00:05:36.034Z,59.25
2019-06-04T00:06:36.030Z,59.25
2019-06-04T00:07:36.021Z,59.15
2019-06-04T00:08:36.000Z,59.55
2019-06-04T00:09:35.990Z,59.65
2019-06-04T00:10:35.980Z,60.05
2019-06-04T00:11:35.968Z,60.05
2019-06-04T00:12:35.967Z,60.75
2019-06-04T00:13:35.956Z,60.25
2019-06-04T00:14:36.013Z,60.85
2019-06-04T00:15:35.924Z,60.95
2019-06-04T00:16:35.913Z,60.97
2019-06-04T00:17:35.907Z,60.97
2019-06-04T00:18:35.904Z,60.88
2019-06-04T00:19:35.893Z,61.38
2019-06-04T00:20:35.873Z,61.18
2019-06-04T00:21:35.859Z,60.88
2019-06-04T00:22:35.848Z,60.88
2019-06-04T00:23:35.837Z,60.88
2019-06-04T00:24:35.860Z,61.00
2019-06-04T00:25:35.819Z,60.88
2019-06-04T00:26:35.808Z,61.27
2019-06-04T00:27:35.794Z,60.68
2019-06-04T00:28:35.782Z,61.51
2019-06-04T00:29:35.772Z,61.51
2019-06-04T00:30:35.772Z,61.21
2019-06-04T00:31:35.762Z,62.01
2019-06-04T00:32:35.739Z,61.90
2019-06-04T00:33:35.729Z,61.30
2019-06-04T00:34:35.722Z,61.41
2019-06-04T00:35:35.716Z,61.30
2019-06-04T00:36:35.695Z,61.71
2019-06-04T00:37:35.686Z,61.60
2019-06-04T00:38:35.675Z,61.51
2019-06-04T00:39:35.671Z,61.30
2019-06-04T00:40:35.661Z,61.60
2019-06-04T00:41:35.644Z,60.71
2019-06-04T00:42:35.631Z,61.51
2019-06-04T00:43:35.622Z,61.30
2019-06-04T00:44:35.610Z,61.51
2019-06-04T00:45:35.610Z,61.21
2019-06-04T00:46:35.585Z,61.41
2019-06-04T00:47:35.576Z,61.51
2019-06-04T00:48:35.566Z,61.10
2019-06-04T00:49:35.554Z,61.71
2019-06-04T00:50:35.546Z,61.51
2019-06-04T00:51:35.543Z,61.71
2019-06-04T00:52:35.523Z,61.80
2019-06-04T00:53:35.511Z,61.90
2019-06-04T00:54:35.509Z,62.20
2019-06-04T00:55:35.490Z,61.68
2019-06-04T00:56:35.490Z,61.60
2019-06-04T00:57:35.470Z,61.21
2019-06-04T00:58:35.458Z,61.90
2019-06-04T00:59:35.444Z,62.10
2019-06-04T01:00:35.438Z,62.30
2019-06-04T01:01:52.917Z,62.20
2019-06-04T01:02:36.423Z,62.70
2019-06-04T01:03:35.404Z,62.30
2019-06-04T01:04:35.391Z,62.63
2019-06-04T01:05:35.383Z,62.70
2019-06-04T01:06:35.369Z,63.00
2019-06-04T01:07:35.376Z,62.90
2019-06-04T01:08:35.350Z,63.53
2019-06-04T01:09:35.338Z,63.33
2019-06-04T01:10:35.328Z,63.33
2019-06-04T01:11:35.315Z,63.53
2019-06-04T01:12:35.312Z,63.53
2019-06-04T01:13:35.292Z,63.33
2019-06-04T01:14:35.284Z,63.33
2019-06-04T01:15:35.271Z,63.23
2019-06-04T01:16:35.287Z,63.23
2019-06-04T01:17:35.261Z,63.23
2019-06-04T01:18:35.239Z,63.13
2019-06-04T01:19:35.228Z,63.33
2019-06-04T01:20:35.216Z,62.73
2019-06-04T01:21:35.204Z,62.83
2019-06-04T01:22:35.203Z,62.63
2019-06-04T01:23:35.221Z,63.13
2019-06-04T01:24:35.172Z,62.96
2019-06-04T01:25:35.161Z,62.86
2019-06-04T01:26:35.151Z,63.33
2019-06-04T01:27:35.140Z,63.17
2019-06-04T01:28:35.128Z,62.93
2019-06-04T01:29:35.126Z,63.73
2019-06-04T01:30:35.108Z,63.56
2019-06-04T01:31:35.097Z,63.46
2019-06-04T01:32:35.090Z,63.53
2019-06-04T01:33:39.753Z,64.23
2019-06-04T01:34:36.074Z,63.83
2019-06-04T01:35:35.051Z,63.96
2019-06-04T01:36:35.044Z,63.96
2019-06-04T01:37:35.036Z,63.56
2019-06-04T01:38:35.023Z,63.43
2019-06-04T01:39:35.047Z,64.16
2019-06-04T01:40:35.000Z,65.06
2019-06-04T01:41:34.986Z,64.93
2019-06-04T01:42:34.979Z,64.63
2019-06-04T01:43:34.968Z,63.86
2019-06-04T01:44:34.953Z,63.23
2019-06-04T01:45:34.956Z,63.26
2019-06-04T01:46:34.951Z,62.86
2019-06-04T01:47:34.919Z,62.86
2019-06-04T01:48:34.910Z,62.66
2019-06-04T01:49:34.907Z,63.26
2019-06-04T01:50:34.888Z,62.46
2019-06-04T01:51:34.878Z,62.16
2019-06-04T01:52:34.878Z,62.76
2019-06-04T01:53:34.856Z,62.53
2019-06-04T01:54:34.855Z,62.46
2019-06-04T01:55:34.843Z,62.46
2019-06-04T01:56:34.822Z,63.36
2019-06-04T01:57:34.817Z,63.46
2019-06-04T01:58:34.801Z,62.73
2019-06-04T01:59:34.789Z,63.06
2019-06-04T02:00:34.792Z,62.83
2019-06-04T02:01:34.781Z,63.17
2019-06-04T02:02:34.764Z,62.86
2019-06-04T02:03:34.745Z,63.06
2019-06-04T02:04:34.750Z,62.96
2019-06-04T02:05:34.771Z,62.93
2019-06-04T02:06:34.723Z,62.86
2019-06-04T02:07:34.707Z,62.83
2019-06-04T02:08:34.705Z,62.76
2019-06-04T02:09:34.684Z,63.26
2019-06-04T02:10:34.673Z,62.13
2019-06-04T02:11:34.686Z,62.56
2019-06-04T02:12:34.659Z,62.86
2019-06-04T02:13:34.642Z,62.63
2019-06-04T02:14:34.628Z,62.66
2019-06-04T02:15:34.616Z,61.87
2019-06-04T02:16:34.609Z,62.16
2019-06-04T02:17:34.608Z,62.13
2019-06-04T02:18:34.583Z,62.04
2019-06-04T02:19:34.577Z,62.04
2019-06-04T02:20:34.561Z,62.16
2019-06-04T02:21:34.552Z,62.26
2019-06-04T02:22:34.567Z,62.46
2019-06-04T02:23:34.528Z,62.46
2019-06-04T02:24:34.515Z,62.37
2019-06-04T02:25:34.506Z,62.76
2019-06-04T02:26:34.495Z,62.66
2019-06-04T02:27:34.493Z,62.37
2019-06-04T02:28:35.513Z,62.56
2019-06-04T02:29:34.461Z,62.76
2019-06-04T02:30:34.458Z,63.36
2019-06-04T02:31:34.446Z,63.17
2019-06-04T02:33:02.207Z,63.09
2019-06-04T02:33:35.490Z,63.26
2019-06-04T02:34:34.424Z,63.49
2019-06-04T02:35:34.405Z,63.49
2019-06-04T02:36:34.389Z,63.29
2019-06-04T02:37:34.382Z,63.39
2019-06-04T02:38:34.405Z,63.49
2019-06-04T02:39:34.357Z,63.22
2019-06-04T02:40:34.347Z,63.82
2019-06-04T02:41:34.340Z,63.89
2019-06-04T02:42:34.324Z,63.89
2019-06-04T02:43:34.310Z,63.89
2019-06-04T02:44:34.306Z,63.89
2019-06-04T02:45:34.291Z,63.89
2019-06-04T02:46:34.277Z,63.79
2019-06-04T02:47:34.271Z,63.79
2019-06-04T02:48:34.264Z,63.79
2019-06-04T02:49:34.243Z,63.79
2019-06-04T02:50:34.232Z,63.69
2019-06-04T02:51:34.227Z,63.89
2019-06-04T02:52:34.211Z,63.79
2019-06-04T02:53:34.202Z,63.89
2019-06-04T02:54:34.206Z,64.00
2019-06-04T02:55:34.182Z,64.89
2019-06-04T02:56:34.166Z,64.99
2019-06-04T02:57:34.156Z,65.09
2019-06-04T02:58:34.156Z,65.09
2019-06-04T02:59:34.150Z,65.09
2019-06-04T03:00:34.128Z,65.02
2019-06-04T03:01:34.126Z,65.19
2019-06-04T03:02:34.107Z,65.19
2019-06-04T03:03:34.096Z,65.09
2019-06-04T03:04:34.119Z,64.89
2019-06-04T03:05:34.074Z,66.13
2019-06-04T03:06:34.065Z,65.83
2019-06-04T03:07:34.052Z,66.09
2019-06-04T03:08:34.041Z,65.69
2019-06-04T03:09:34.026Z,65.22
2019-06-04T03:10:36.760Z,65.59
2019-06-04T03:11:34.009Z,65.79
2019-06-04T03:12:33.993Z,65.49
2019-06-04T03:13:33.997Z,65.79
2019-06-04T03:14:33.970Z,66.09
2019-06-04T03:15:33.974Z,65.89
2019-06-04T03:16:33.962Z,66.13
2019-06-04T03:17:33.943Z,65.99
2019-06-04T03:18:33.933Z,66.09
2019-06-04T03:19:33.925Z,65.79
2019-06-04T03:20:33.926Z,66.09
2019-06-04T03:21:33.900Z,66.49
2019-06-04T03:22:33.885Z,65.99
2019-06-04T03:23:33.875Z,66.49
2019-06-04T03:24:33.861Z,66.79
2019-06-04T03:25:33.856Z,66.29
2019-06-04T03:26:33.848Z,66.09
2019-06-04T03:27:33.832Z,66.29
2019-06-04T03:28:33.823Z,66.09
2019-06-04T03:29:33.818Z,66.39
2019-06-04T03:30:33.799Z,66.39
2019-06-04T03:31:33.800Z,66.39
2019-06-04T03:32:33.781Z,66.39
2019-06-04T03:33:56.335Z,66.39
2019-06-04T03:34:34.757Z,66.26
2019-06-04T03:35:33.744Z,66.39
2019-06-04T03:36:33.745Z,66.26
2019-06-04T03:37:33.724Z,66.56
2019-06-04T03:38:33.709Z,66.86
2019-06-04T03:39:33.703Z,65.96
2019-06-04T03:40:33.701Z,66.16
2019-06-04T03:41:33.684Z,66.46
2019-06-04T03:42:33.669Z,65.96
2019-06-04T03:43:33.658Z,66.86
2019-06-04T03:44:33.648Z,66.36
2019-06-04T03:45:33.637Z,66.56
2019-06-04T03:46:33.634Z,66.06
2019-06-04T03:47:33.613Z,66.56
2019-06-04T03:48:33.600Z,66.46
2019-06-04T03:49:33.590Z,66.36
2019-06-04T03:50:33.580Z,66.56
2019-06-04T03:51:33.580Z,66.56
2019-06-04T03:52:33.561Z,66.86
2019-06-04T03:53:33.552Z,67.06
2019-06-04T03:54:33.535Z,66.86
2019-06-04T03:55:33.524Z,66.86
2019-06-04T03:56:33.537Z,66.26
2019-06-04T03:57:33.503Z,66.56
2019-06-04T03:58:33.491Z,67.26
2019-06-04T03:59:33.483Z,67.16
2019-06-04T04:00:33.496Z,67.16
2019-06-04T04:01:33.464Z,66.96
2019-06-04T04:02:33.459Z,66.96
2019-06-04T04:03:33.443Z,66.93
2019-06-04T04:04:33.447Z,67.46
2019-06-04T04:05:33.422Z,66.86
2019-06-04T04:06:33.408Z,67.46
2019-06-04T04:07:33.392Z,66.86
2019-06-04T04:08:33.388Z,66.46
2019-06-04T04:09:33.374Z,66.16
2019-06-04T04:10:33.366Z,66.53
2019-06-04T04:11:33.350Z,66.33
2019-06-04T04:12:33.347Z,66.23
2019-06-04T04:13:33.340Z,66.73
2019-06-04T04:14:33.334Z,66.73
2019-06-04T04:15:33.312Z,66.63
2019-06-04T04:16:33.299Z,67.03
2019-06-04T04:17:33.290Z,67.33
2019-06-04T04:18:33.272Z,67.03
2019-06-04T04:19:33.286Z,67.03
2019-06-04T04:20:33.278Z,67.23
2019-06-04T04:21:33.239Z,67.43
2019-06-04T04:22:33.233Z,67.53
2019-06-04T04:23:33.224Z,67.33
2019-06-04T04:24:33.215Z,67.23
2019-06-04T04:25:33.204Z,67.23
2019-06-04T04:26:33.190Z,67.33
2019-06-04T04:27:33.179Z,67.53
2019-06-04T04:28:33.168Z,67.03
2019-06-04T04:29:33.180Z,67.23
2019-06-04T04:30:33.148Z,67.30
2019-06-04T04:31:35.825Z,67.69
2019-06-04T04:32:33.121Z,67.10
2019-06-04T04:33:33.116Z,66.89
2019-06-04T04:34:36.572Z,67.49
2019-06-04T04:35:33.099Z,67.53
2019-06-04T04:36:33.077Z,67.00
2019-06-04T04:37:33.065Z,67.00
2019-06-04T04:38:33.061Z,67.30
2019-06-04T04:39:33.054Z,67.90
2019-06-04T04:40:33.040Z,67.80
2019-06-04T04:41:33.027Z,67.60
2019-06-04T04:42:33.017Z,67.80
2019-06-04T04:43:33.011Z,67.49
2019-06-04T04:44:32.997Z,67.46
2019-06-04T04:45:32.994Z,67.07
2019-06-04T04:46:32.986Z,67.57
2019-06-04T04:47:32.965Z,67.36
2019-06-04T04:48:32.947Z,69.66
2019-06-04T04:49:34.520Z,68.73
2019-06-04T04:50:32.970Z,67.63
2019-06-04T04:51:32.915Z,67.53
2019-06-04T04:52:32.909Z,66.83
2019-06-04T04:53:32.898Z,66.83
2019-06-04T04:54:32.890Z,65.94
2019-06-04T04:55:32.876Z,66.24
2019-06-04T04:56:36.242Z,66.24
2019-06-04T04:57:32.878Z,66.30
2019-06-04T04:58:32.843Z,66.93
2019-06-04T04:59:32.829Z,66.73
2019-06-04T05:00:32.817Z,66.83
2019-06-04T05:01:32.811Z,66.73
2019-06-04T05:02:32.811Z,66.53
2019-06-04T05:03:32.784Z,66.53
2019-06-04T05:04:47.931Z,66.83
2019-06-04T05:05:33.766Z,66.83
2019-06-04T05:06:32.765Z,65.83
2019-06-04T05:07:32.741Z,66.53
2019-06-04T05:08:32.753Z,66.33
2019-06-04T05:09:32.723Z,66.53
2019-06-04T05:10:32.714Z,66.83
2019-06-04T05:11:32.702Z,66.63
2019-06-04T05:12:32.692Z,66.53
2019-06-04T05:13:32.682Z,66.13
2019-06-04T05:14:32.739Z,66.73
2019-06-04T05:15:32.658Z,66.24
2019-06-04T05:16:32.653Z,66.33
2019-06-04T05:17:32.636Z,66.00
2019-06-04T05:18:32.638Z,66.10
2019-06-04T05:19:32.614Z,66.00
2019-06-04T05:20:32.616Z,66.10
2019-06-04T05:21:34.179Z,65.91
2019-06-04T05:22:32.575Z,66.40
2019-06-04T05:23:32.569Z,66.20
2019-06-04T05:24:32.598Z,66.30
2019-06-04T05:25:32.600Z,66.10
2019-06-04T05:26:32.791Z,66.10
2019-06-04T05:27:32.535Z,66.40
2019-06-04T05:28:32.509Z,65.70
2019-06-04T05:29:32.501Z,65.80
2019-06-04T05:30:36.330Z,66.00
2019-06-04T05:31:32.482Z,66.00
2019-06-04T05:32:32.483Z,64.71
2019-06-04T05:33:32.632Z,65.31
2019-06-04T05:34:32.658Z,65.31
2019-06-04T05:35:32.551Z,64.51
2019-06-04T05:36:32.718Z,65.11
2019-06-04T05:37:33.326Z,64.90
2019-06-04T05:38:32.887Z,64.78
2019-06-04T05:39:32.588Z,64.81
2019-06-04T05:40:33.060Z,64.18
2019-06-04T05:41:32.679Z,64.58
2019-06-04T05:42:32.839Z,64.87
2019-06-04T05:43:32.877Z,64.48
2019-06-04T05:44:32.737Z,64.58
2019-06-04T05:45:32.821Z,64.48
2019-06-04T05:46:33.328Z,64.37
2019-06-04T05:47:32.809Z,64.37
2019-06-04T05:48:32.951Z,64.67
2019-06-04T05:49:32.780Z,64.15
2019-06-04T05:50:33.111Z,63.95
2019-06-04T05:51:33.261Z,64.04
2019-06-04T05:52:33.223Z,63.25
2019-06-04T05:53:33.167Z,63.55
2019-06-04T05:54:33.013Z,63.45
2019-06-04T05:55:33.138Z,63.62
2019-06-04T05:56:33.392Z,64.12
2019-06-04T05:57:33.741Z,62.99
2019-06-04T05:58:33.244Z,63.22
2019-06-04T05:59:33.369Z,63.19
2019-06-04T06:00:33.322Z,63.19
2019-06-04T06:01:35.813Z,62.59
2019-06-04T06:02:33.302Z,63.09
2019-06-04T06:03:33.682Z,62.29
2019-06-04T06:04:33.317Z,61.69
2019-06-04T06:05:37.669Z,62.56
2019-06-04T06:06:33.327Z,61.77
2019-06-04T06:07:32.123Z,62.66
2019-06-04T06:08:32.075Z,61.77
2019-06-04T06:09:32.464Z,61.37
2019-06-04T06:10:32.108Z,61.17
2019-06-04T06:11:32.122Z,61.07
2019-06-04T06:12:32.126Z,60.94
2019-06-04T06:13:32.254Z,61.47
2019-06-04T06:14:32.098Z,61.54
2019-06-04T06:15:32.451Z,61.14
2019-06-04T06:16:32.967Z,60.55
2019-06-04T06:17:32.146Z,60.94
2019-06-04T06:18:32.273Z,60.91
2019-06-04T06:19:32.083Z,60.71
2019-06-04T06:20:31.948Z,60.52
2019-06-04T06:21:33.085Z,60.42
2019-06-04T06:22:32.632Z,60.71
2019-06-04T06:23:32.384Z,60.49
2019-06-04T06:24:33.062Z,59.99
2019-06-04T06:25:35.821Z,59.30
2019-06-04T06:26:33.140Z,58.50
2019-06-04T06:27:32.691Z,58.90
2019-06-04T06:28:32.591Z,57.87
2019-06-04T06:29:32.658Z,58.77
2019-06-04T06:30:32.787Z,58.87
2019-06-04T06:31:32.818Z,58.27
2019-06-04T06:32:32.899Z,58.07
2019-06-04T06:33:35.469Z,58.27
2019-06-04T06:34:37.088Z,57.95
2019-06-04T06:35:49.248Z,57.65
2019-06-04T06:36:33.014Z,57.55
2019-06-04T06:37:33.204Z,57.82
2019-06-04T06:38:47.977Z,57.15
2019-06-04T06:39:33.289Z,57.92
2019-06-04T06:40:31.732Z,57.62
2019-06-04T06:41:31.745Z,57.13
2019-06-04T06:42:31.758Z,56.63
2019-06-04T06:43:31.987Z,57.13
2019-06-04T06:44:31.813Z,56.80
2019-06-04T06:45:32.069Z,56.83
2019-06-04T06:46:34.029Z,56.40
2019-06-04T06:47:32.971Z,57.69
2019-06-04T06:48:31.670Z,56.90
2019-06-04T06:49:31.629Z,56.90
2019-06-04T06:50:31.620Z,55.61
2019-06-04T06:51:31.611Z,56.57
2019-06-04T06:52:31.597Z,55.78
2019-06-04T06:53:31.609Z,56.28
2019-06-04T06:54:31.584Z,55.98
2019-06-04T06:55:32.714Z,55.29
2019-06-04T06:56:32.923Z,55.98
2019-06-04T06:57:32.801Z,55.56
2019-06-04T06:58:34.994Z,55.06
2019-06-04T06:59:32.603Z,54.57
2019-06-04T07:00:31.550Z,54.84
2019-06-04T07:01:32.571Z,54.64
2019-06-04T07:02:32.493Z,54.35
2019-06-04T07:03:33.043Z,53.16
2019-06-04T07:04:31.886Z,53.92
2019-06-04T07:05:31.465Z,51.45
2019-06-04T07:06:31.919Z,52.73
2019-06-04T07:07:31.444Z,51.75
2019-06-04T07:08:32.530Z,52.14
2019-06-04T07:09:31.427Z,50.66
2019-06-04T07:10:32.412Z,51.15
2019-06-04T07:11:32.501Z,51.37
2019-06-04T07:12:32.579Z,52.56
2019-06-04T07:13:32.696Z,52.54
2019-06-04T07:14:32.629Z,52.64
2019-06-04T07:15:32.360Z,52.83
2019-06-04T07:16:31.353Z,53.92
2019-06-04T07:17:31.401Z,53.20
2019-06-04T07:18:31.733Z,52.12
2019-06-04T07:19:31.326Z,52.48
2019-06-04T07:20:31.464Z,52.41
2019-06-04T07:21:31.532Z,51.72
2019-06-04T07:22:31.323Z,51.89
2019-06-04T07:23:32.633Z,52.98
2019-06-04T07:24:31.594Z,52.48
2019-06-04T07:25:31.705Z,53.35
2019-06-04T07:26:31.787Z,51.89
2019-06-04T07:27:31.897Z,50.88
2019-06-04T07:28:31.222Z,50.59
2019-06-04T07:29:32.477Z,51.77
2019-06-04T07:30:32.277Z,51.77
2019-06-04T07:31:31.942Z,51.94
2019-06-04T07:32:32.332Z,50.16
2019-06-04T07:33:32.891Z,49.67
2019-06-04T07:34:32.435Z,49.57
2019-06-04T07:35:32.436Z,50.76
2019-06-04T07:36:33.518Z,50.24
2019-06-04T07:37:32.958Z,50.43
2019-06-04T07:38:33.285Z,49.74
2019-06-04T07:39:32.358Z,50.24
2019-06-04T07:40:31.095Z,50.51
2019-06-04T07:41:31.107Z,50.51
2019-06-04T07:42:31.137Z,48.14
2019-06-04T07:43:31.064Z,49.92
2019-06-04T07:44:31.058Z,49.72
2019-06-04T07:45:31.251Z,48.12
2019-06-04T07:46:31.279Z,48.61
2019-06-04T07:47:31.178Z,48.22
2019-06-04T07:48:35.831Z,47.13
2019-06-04T07:49:33.092Z,45.26
2019-06-04T07:50:31.571Z,44.94
2019-06-04T07:51:31.341Z,44.65
2019-06-04T07:52:31.576Z,45.93
2019-06-04T07:53:31.609Z,46.40
2019-06-04T07:54:31.513Z,45.02
2019-06-04T07:55:32.225Z,46.99
2019-06-04T07:56:31.818Z,46.67
2019-06-04T07:57:32.405Z,46.77
2019-06-04T07:58:31.908Z,46.75
2019-06-04T07:59:32.323Z,47.04
2019-06-04T08:00:32.121Z,46.35
2019-06-04T08:01:52.683Z,46.82
2019-06-04T08:02:32.277Z,45.62
2019-06-04T08:03:32.507Z,44.93
2019-06-04T08:04:33.722Z,44.44
2019-06-04T08:05:30.847Z,44.32
2019-06-04T08:06:43.196Z,44.59
2019-06-04T08:07:32.539Z,43.61
2019-06-04T08:08:30.846Z,44.20
2019-06-04T08:09:30.802Z,44.89
2019-06-04T08:10:30.793Z,44.59
2019-06-04T08:11:30.779Z,44.20
2019-06-04T08:12:30.767Z,43.10
2019-06-04T08:13:30.756Z,43.10
2019-06-04T08:14:30.755Z,42.10
2019-06-04T08:15:30.738Z,42.39
2019-06-04T08:16:30.727Z,41.90
2019-06-04T08:17:30.722Z,40.41
2019-06-04T08:18:30.719Z,40.31
2019-06-04T08:19:30.699Z,39.62
2019-06-04T08:20:30.692Z,40.61
2019-06-04T08:21:42.962Z,41.37
2019-06-04T08:22:31.687Z,42.27
2019-06-04T08:23:30.690Z,42.66
2019-06-04T08:24:30.657Z,42.49
2019-06-04T08:25:32.419Z,42.68
2019-06-04T08:26:30.632Z,41.58
2019-06-04T08:27:30.627Z,40.11
2019-06-04T08:28:30.982Z,38.54
2019-06-04T08:29:30.605Z,39.62
2019-06-04T08:30:30.588Z,40.51
2019-06-04T08:31:30.584Z,39.53
2019-06-04T08:32:33.759Z,39.43
2019-06-04T08:33:31.560Z,38.25
2019-06-04T08:34:30.577Z,38.17
2019-06-04T08:35:30.546Z,38.96
2019-06-04T08:36:30.528Z,39.64
2019-06-04T08:37:30.518Z,39.35
2019-06-04T08:38:30.519Z,40.31
2019-06-04T08:39:30.512Z,40.51
2019-06-04T08:40:30.486Z,38.82
2019-06-04T08:41:30.483Z,39.09
2019-06-04T08:42:30.480Z,39.47
2019-06-04T08:43:30.462Z,38.18
2019-06-04T08:44:30.471Z,34.93
2019-06-04T08:45:30.436Z,35.21
2019-06-04T08:46:30.431Z,35.58
2019-06-04T08:47:30.424Z,37.12
2019-06-04T08:48:33.016Z,37.22
2019-06-04T08:49:30.404Z,37.01
2019-06-04T08:50:30.403Z,38.18
2019-06-04T08:51:30.383Z,35.24
2019-06-04T08:52:30.378Z,35.71
2019-06-04T08:53:30.363Z,37.07
2019-06-04T08:54:30.359Z,36.76
2019-06-04T08:55:30.355Z,35.77
2019-06-04T08:56:30.333Z,36.14
2019-06-04T08:57:30.333Z,36.04
2019-06-04T08:58:30.319Z,35.25
2019-06-04T08:59:30.305Z,35.03
2019-06-04T09:00:30.326Z,35.21
2019-06-04T09:01:30.281Z,34.82
2019-06-04T09:02:30.278Z,34.03
2019-06-04T09:03:30.265Z,33.83
2019-06-04T09:04:30.255Z,33.36
2019-06-04T09:05:30.248Z,34.24
2019-06-04T09:06:30.273Z,34.70
2019-06-04T09:07:30.247Z,33.17
2019-06-04T09:08:30.222Z,33.07
2019-06-04T09:09:30.220Z,33.07
2019-06-04T09:10:30.199Z,34.53
2019-06-04T09:11:30.197Z,33.06
2019-06-04T09:12:30.185Z,33.44
2019-06-04T09:13:30.235Z,32.10
2019-06-04T09:14:30.156Z,32.50
2019-06-04T09:15:30.155Z,33.11
2019-06-04T09:16:30.144Z,33.11
2019-06-04T09:17:30.128Z,33.48
2019-06-04T09:18:30.117Z,33.85
2019-06-04T09:19:30.109Z,33.25
2019-06-04T09:20:30.141Z,33.64
2019-06-04T09:21:30.094Z,33.46
2019-06-04T09:22:30.081Z,33.36
2019-06-04T09:23:30.070Z,32.08
2019-06-04T09:24:30.060Z,32.96
2019-06-04T09:25:30.059Z,32.67
2019-06-04T09:26:30.083Z,31.88
2019-06-04T09:27:30.043Z,31.77
2019-06-04T09:28:30.048Z,31.37
2019-06-04T09:29:30.018Z,32.26
2019-06-04T09:30:30.004Z,31.66
2019-06-04T09:31:30.012Z,30.98
2019-06-04T09:32:29.994Z,31.48
2019-06-04T09:33:29.982Z,31.38
2019-06-04T09:34:29.970Z,30.93
2019-06-04T09:35:29.968Z,31.41
2019-06-04T09:36:29.983Z,31.51
2019-06-04T09:37:46.176Z,30.93
2019-06-04T09:38:30.927Z,31.81
2019-06-04T09:39:29.925Z,31.13
2019-06-04T09:40:29.912Z,31.41
2019-06-04T09:41:29.910Z,31.04
2019-06-04T09:42:29.916Z,31.53
2019-06-04T09:43:29.886Z,31.64
2019-06-04T09:44:29.900Z,31.16
2019-06-04T09:45:29.862Z,32.79
2019-06-04T09:46:29.859Z,32.02
2019-06-04T09:47:29.849Z,32.59
2019-06-04T09:48:29.835Z,32.57
2019-06-04T09:49:29.829Z,31.97
2019-06-04T09:50:29.827Z,30.90
2019-06-04T09:51:29.811Z,31.10
2019-06-04T09:52:29.799Z,31.37
2019-06-04T09:53:29.795Z,30.19
2019-06-04T09:54:29.785Z,29.50
2019-06-04T09:55:29.799Z,30.47
2019-06-04T09:56:29.758Z,30.66
2019-06-04T09:57:29.755Z,29.97
2019-06-04T09:58:31.077Z,28.98
2019-06-04T09:59:29.739Z,28.98
2019-06-04T10:00:29.720Z,28.40
2019-06-04T10:01:29.728Z,29.27
2019-06-04T10:02:29.704Z,29.66
2019-06-04T10:03:29.714Z,29.57
2019-06-04T10:04:29.681Z,29.85
2019-06-04T10:05:29.674Z,28.53
2019-06-04T10:06:29.664Z,28.93
2019-06-04T10:07:29.652Z,30.69
2019-06-04T10:08:29.649Z,28.85
2019-06-04T10:09:29.649Z,28.96
2019-06-04T10:10:29.635Z,30.12
2019-06-04T10:11:29.628Z,30.12
2019-06-04T10:12:29.625Z,30.59
2019-06-04T10:13:29.595Z,30.48
2019-06-04T10:14:29.588Z,29.90
2019-06-04T10:15:29.583Z,29.21
2019-06-04T10:16:29.622Z,28.72
2019-06-04T10:17:29.560Z,28.63
2019-06-04T10:18:29.547Z,28.93
2019-06-04T10:19:29.544Z,28.43
2019-06-04T10:20:29.526Z,28.44
2019-06-04T10:21:29.518Z,28.44
2019-06-04T10:22:29.517Z,29.50
2019-06-04T10:23:29.497Z,27.93
2019-06-04T10:24:29.489Z,28.41
2019-06-04T10:25:29.486Z,27.73
2019-06-04T10:26:29.476Z,28.50
2019-06-04T10:27:29.485Z,28.98
2019-06-04T10:28:29.453Z,28.19
2019-06-04T10:29:29.453Z,28.87
2019-06-04T10:30:29.431Z,28.66
2019-06-04T10:31:29.427Z,27.98
2019-06-04T10:32:29.417Z,27.92
2019-06-04T10:33:29.536Z,28.02
2019-06-04T10:34:29.440Z,27.53
2019-06-04T10:35:29.461Z,28.03
2019-06-04T10:36:29.410Z,28.51
2019-06-04T10:37:29.467Z,28.30
2019-06-04T10:38:29.767Z,28.32
2019-06-04T10:39:29.594Z,28.33
2019-06-04T10:40:29.750Z,28.03
2019-06-04T10:41:29.334Z,28.41
2019-06-04T10:42:29.324Z,28.20
2019-06-04T10:43:29.318Z,28.41
2019-06-04T10:44:29.312Z,28.70
2019-06-04T10:45:29.292Z,29.27
2019-06-04T10:46:29.282Z,29.47
2019-06-04T10:47:29.272Z,28.69
2019-06-04T10:48:29.268Z,27.53
2019-06-04T10:49:29.268Z,27.64
2019-06-04T10:50:29.249Z,29.28
2019-06-04T10:51:29.238Z,28.61
2019-06-04T10:52:29.230Z,29.66
2019-06-04T10:53:29.217Z,28.68
2019-06-04T10:54:29.218Z,28.58
2019-06-04T10:55:29.196Z,29.02
2019-06-04T10:56:29.200Z,29.79
2019-06-04T10:57:29.183Z,29.47
2019-06-04T10:58:29.172Z,28.76
2019-06-04T10:59:29.193Z,27.79
2019-06-04T11:00:32.554Z,26.63
2019-06-04T11:01:29.145Z,27.50
2019-06-04T11:02:29.136Z,27.58
2019-06-04T11:03:29.133Z,26.79
2019-06-04T11:04:29.112Z,27.75
2019-06-04T11:05:29.137Z,27.15
2019-06-04T11:06:29.092Z,27.93
2019-06-04T11:07:29.094Z,27.73
2019-06-04T11:08:46.383Z,26.86
2019-06-04T11:09:30.077Z,27.44
2019-06-04T11:10:29.073Z,27.92
2019-06-04T11:11:29.061Z,26.46
2019-06-04T11:12:29.042Z,26.19
2019-06-04T11:13:29.036Z,26.57
2019-06-04T11:14:29.046Z,26.29
2019-06-04T11:15:29.013Z,26.09
2019-06-04T11:16:29.038Z,26.95
2019-06-04T11:17:29.147Z,26.19
2019-06-04T11:18:28.983Z,26.29
2019-06-04T11:19:28.981Z,27.36
2019-06-04T11:20:28.975Z,28.04
2019-06-04T11:21:39.486Z,27.08
2019-06-04T11:22:29.953Z,27.08
2019-06-04T11:23:28.936Z,26.88
2019-06-04T11:24:28.934Z,26.57
2019-06-04T11:25:28.940Z,26.39
2019-06-04T11:26:31.665Z,26.40
2019-06-04T11:27:28.906Z,26.30
2019-06-04T11:28:28.910Z,27.06
2019-06-04T11:29:28.885Z,26.48
2019-06-04T11:30:28.883Z,26.46
2019-06-04T11:31:28.897Z,26.17
2019-06-04T11:32:28.866Z,25.79
2019-06-04T11:33:28.851Z,26.65
2019-06-04T11:34:28.839Z,26.19
2019-06-04T11:35:28.851Z,27.66
2019-06-04T11:36:28.889Z,27.26
2019-06-04T11:37:28.816Z,26.29
2019-06-04T11:38:28.801Z,26.86
2019-06-04T11:39:28.797Z,26.07
2019-06-04T11:40:28.782Z,26.84
2019-06-04T11:41:28.773Z,25.60
2019-06-04T11:42:28.784Z,26.90
2019-06-04T11:43:28.761Z,28.19
2019-06-04T11:44:28.760Z,28.29
2019-06-04T11:45:28.753Z,29.47
2019-06-04T11:46:28.740Z,29.47
2019-06-04T11:47:28.722Z,29.28
2019-06-04T11:48:28.707Z,29.37
2019-06-04T11:49:28.709Z,28.51
2019-06-04T11:50:28.689Z,28.11
2019-06-04T11:51:28.684Z,27.83
2019-06-04T11:52:28.690Z,28.41
2019-06-04T11:53:33.461Z,27.31
2019-06-04T11:54:29.650Z,26.79
2019-06-04T11:55:28.640Z,27.10
2019-06-04T11:56:28.631Z,27.71
2019-06-04T11:57:28.633Z,28.09
2019-06-04T11:58:28.621Z,26.73
2019-06-04T11:59:28.607Z,26.84
2019-06-04T12:00:28.615Z,27.66
2019-06-04T12:01:28.591Z,27.78
2019-06-04T12:02:28.581Z,29.46
2019-06-04T12:03:28.609Z,28.93
2019-06-04T12:04:28.570Z,28.70
2019-06-04T12:05:28.551Z,27.62
2019-06-04T12:06:28.556Z,27.61
2019-06-04T12:07:28.525Z,26.82
2019-06-04T12:08:28.521Z,26.43
2019-06-04T12:09:31.047Z,26.23
2019-06-04T12:10:28.501Z,26.50
2019-06-04T12:11:28.488Z,25.63
2019-06-04T12:12:43.381Z,26.41
2019-06-04T12:13:29.470Z,26.30
2019-06-04T12:14:28.473Z,26.10
2019-06-04T12:15:28.457Z,26.50
2019-06-04T12:16:28.481Z,27.24
2019-06-04T12:17:28.438Z,26.86
2019-06-04T12:18:28.435Z,26.26
2019-06-04T12:19:28.434Z,25.49
2019-06-04T12:20:28.406Z,25.29
2019-06-04T12:21:28.417Z,25.29
2019-06-04T12:22:28.395Z,24.33
2019-06-04T12:23:31.208Z,25.29
2019-06-04T12:24:28.369Z,24.72
2019-06-04T12:25:28.384Z,25.59
2019-06-04T12:26:28.355Z,25.20
2019-06-04T12:27:28.358Z,25.10
2019-06-04T12:28:28.337Z,25.87
2019-06-04T12:29:32.739Z,26.17
2019-06-04T12:30:28.327Z,26.55
2019-06-04T12:31:28.324Z,25.98
2019-06-04T12:32:28.296Z,26.01
2019-06-04T12:33:28.292Z,26.73
2019-06-04T12:34:28.278Z,27.11
2019-06-04T12:35:28.274Z,26.42
2019-06-04T12:36:28.299Z,27.22
2019-06-04T12:37:28.256Z,26.04
2019-06-04T12:38:28.239Z,25.72
2019-06-04T12:39:38.924Z,26.08
2019-06-04T12:40:29.219Z,26.55
2019-06-04T12:41:28.216Z,25.57
2019-06-04T12:42:28.228Z,25.39
2019-06-04T12:43:28.202Z,24.72
2019-06-04T12:44:28.190Z,24.91
2019-06-04T12:45:28.207Z,23.85
2019-06-04T12:46:28.183Z,24.51
2019-06-04T12:47:28.162Z,25.09
2019-06-04T12:48:28.148Z,26.56
2019-06-04T12:49:48.003Z,26.10
2019-06-04T12:50:29.134Z,25.99
2019-06-04T12:51:28.142Z,25.59
2019-06-04T12:52:28.114Z,25.59